createdAt,value
2018-09-21T00:01:19.390Z,47.40
2018-09-21T00:03:52.441Z,47.50
2018-09-21T00:06:20.316Z,47.60
2018-09-21T00:08:47.808Z,47.60
2018-09-21T00:11:15.268Z,47.70
2018-09-21T00:13:42.769Z,47.70
2018-09-21T00:16:10.243Z,47.80
2018-09-21T00:18:37.710Z,48.20
2018-09-21T00:21:05.186Z,47.90
2018-09-21T00:23:32.999Z,48.30
2018-09-21T00:26:00.472Z,48.00
2018-09-21T00:28:27.976Z,48.00
2018-09-21T00:30:55.612Z,48.00
2018-09-21T00:33:23.108Z,48.60
2018-09-21T00:35:50.616Z,48.00
2018-09-21T00:38:18.240Z,48.10
2018-09-21T00:40:45.881Z,48.10
2018-09-21T00:43:13.698Z,48.10
2018-09-21T00:45:41.185Z,48.20
2018-09-21T00:48:08.697Z,48.20
2018-09-21T00:50:36.188Z,48.20
2018-09-21T00:53:03.750Z,48.20
2018-09-21T00:55:31.241Z,48.30
2018-09-21T00:57:58.796Z,48.30
2018-09-21T01:00:26.280Z,48.30
2018-09-21T01:02:53.768Z,48.30
2018-09-21T01:05:21.237Z,48.30
2018-09-21T01:07:48.809Z,48.30
2018-09-21T01:10:16.297Z,48.30
2018-09-21T01:12:43.784Z,48.30
2018-09-21T01:15:11.249Z,48.40
2018-09-21T01:17:45.200Z,48.40
2018-09-21T01:20:12.665Z,48.40
2018-09-21T01:22:40.248Z,48.50
2018-09-21T01:25:07.815Z,48.50
2018-09-21T01:27:35.277Z,48.50
2018-09-21T01:30:02.764Z,48.50
2018-09-21T01:32:30.229Z,48.50
2018-09-21T01:34:57.692Z,48.50
2018-09-21T01:37:25.167Z,49.20
2018-09-21T01:39:52.627Z,48.60
2018-09-21T01:42:20.080Z,48.60
2018-09-21T01:44:47.555Z,48.60
2018-09-21T01:47:15.029Z,48.60
2018-09-21T01:49:42.493Z,48.50
2018-09-21T01:52:09.944Z,48.60
2018-09-21T01:54:37.419Z,48.60
2018-09-21T01:57:04.889Z,48.80
2018-09-21T01:59:32.448Z,48.70
2018-09-21T02:01:59.916Z,49.20
2018-09-21T02:04:32.977Z,48.70
2018-09-21T02:07:00.443Z,48.70
2018-09-21T02:09:27.934Z,48.70
2018-09-21T02:11:55.421Z,48.60
2018-09-21T02:14:22.890Z,48.60
2018-09-21T02:16:50.651Z,48.60
2018-09-21T02:19:18.122Z,48.60
2018-09-21T02:21:45.581Z,48.60
2018-09-21T02:24:13.055Z,48.70
2018-09-21T02:26:40.542Z,48.70
2018-09-21T02:29:08.019Z,48.70
2018-09-21T02:31:35.482Z,48.80
2018-09-21T02:34:02.941Z,49.40
2018-09-21T02:36:30.396Z,48.80
2018-09-21T02:38:57.964Z,48.80
2018-09-21T02:41:25.522Z,48.90
2018-09-21T02:43:53.070Z,48.80
2018-09-21T02:46:20.543Z,49.50
2018-09-21T02:48:48.018Z,48.90
2018-09-21T02:51:15.485Z,48.90
2018-09-21T02:53:42.950Z,48.30
2018-09-21T02:56:10.412Z,49.00
2018-09-21T02:58:37.869Z,48.30
2018-09-21T03:01:05.626Z,48.90
2018-09-21T03:03:33.099Z,48.90
2018-09-21T03:06:00.560Z,48.90
2018-09-21T03:08:28.060Z,48.90
2018-09-21T03:10:55.532Z,48.90
2018-09-21T03:13:22.997Z,48.90
2018-09-21T03:15:50.494Z,48.90
2018-09-21T03:18:17.964Z,48.90
2018-09-21T03:20:45.434Z,48.90
2018-09-21T03:23:12.886Z,48.90
2018-09-21T03:25:40.347Z,48.90
2018-09-21T03:28:07.821Z,48.90
2018-09-21T03:30:35.317Z,48.90
2018-09-21T03:33:02.824Z,48.90
2018-09-21T03:35:30.285Z,48.90
2018-09-21T03:37:57.763Z,48.90
2018-09-21T03:40:25.241Z,48.90
2018-09-21T03:42:52.744Z,48.90
2018-09-21T03:45:20.217Z,48.90
2018-09-21T03:47:47.673Z,48.90
2018-09-21T03:50:15.167Z,48.90
2018-09-21T03:52:42.796Z,48.90
2018-09-21T03:55:10.295Z,48.90
2018-09-21T03:57:37.748Z,48.90
2018-09-21T04:00:06.003Z,49.00
2018-09-21T04:02:33.498Z,49.00
2018-09-21T04:05:00.976Z,49.00
2018-09-21T04:07:28.466Z,49.60
2018-09-21T04:09:55.936Z,49.10
2018-09-21T04:12:23.425Z,49.00
2018-09-21T04:14:50.895Z,49.10
2018-09-21T04:17:18.371Z,49.10
2018-09-21T04:19:45.836Z,49.00
2018-09-21T04:22:13.306Z,49.40
2018-09-21T04:24:40.776Z,49.50
2018-09-21T04:27:08.373Z,49.60
2018-09-21T04:29:35.861Z,49.70
2018-09-21T04:32:03.380Z,49.60
2018-09-21T04:34:30.838Z,49.60
2018-09-21T04:36:58.302Z,49.20
2018-09-21T04:39:25.823Z,49.80
2018-09-21T04:41:53.357Z,48.80
2018-09-21T04:44:20.877Z,48.80
2018-09-21T04:46:48.462Z,48.70
2018-09-21T04:49:15.947Z,48.70
2018-09-21T04:51:43.422Z,48.50
2018-09-21T04:54:10.895Z,48.40
2018-09-21T04:56:38.360Z,47.10
2018-09-21T04:59:05.821Z,46.90
2018-09-21T05:01:33.285Z,47.40
2018-09-21T05:04:01.190Z,47.70
2018-09-21T05:06:28.680Z,47.90
2018-09-21T05:08:56.164Z,48.70
2018-09-21T05:11:23.765Z,48.20
2018-09-21T05:13:51.273Z,48.50
2018-09-21T05:16:18.714Z,48.70
2018-09-21T05:18:46.177Z,48.30
2018-09-21T05:21:13.628Z,48.10
2018-09-21T05:23:41.091Z,47.80
2018-09-21T05:26:08.620Z,47.70
2018-09-21T05:28:36.168Z,47.60
2018-09-21T05:31:03.647Z,47.50
2018-09-21T05:33:31.129Z,47.40
2018-09-21T05:35:58.626Z,47.50
2018-09-21T05:38:26.173Z,47.40
2018-09-21T05:40:53.644Z,47.40
2018-09-21T05:43:21.111Z,47.40
2018-09-21T05:45:48.602Z,47.30
2018-09-21T05:48:16.060Z,47.30
2018-09-21T05:50:43.527Z,46.90
2018-09-21T05:53:11.045Z,47.20
2018-09-21T05:55:38.625Z,47.30
2018-09-21T05:58:06.104Z,47.90
2018-09-21T06:00:33.581Z,47.30
2018-09-21T06:03:01.199Z,47.30
2018-09-21T06:05:28.618Z,47.30
2018-09-21T06:07:56.142Z,47.90
2018-09-21T06:10:23.622Z,47.20
2018-09-21T06:12:51.094Z,47.30
2018-09-21T06:15:18.569Z,47.30
2018-09-21T06:17:46.037Z,47.30
2018-09-21T06:20:13.508Z,47.30
2018-09-21T06:22:45.104Z,47.30
2018-09-21T06:25:21.031Z,47.30
2018-09-21T06:27:48.505Z,46.80
2018-09-21T06:30:20.231Z,47.50
2018-09-21T06:32:47.768Z,47.20
2018-09-21T06:35:15.251Z,47.20
2018-09-21T06:37:42.778Z,47.30
2018-09-21T06:40:10.252Z,47.30
2018-09-21T06:42:37.789Z,47.30
2018-09-21T06:45:05.372Z,47.90
2018-09-21T06:47:32.903Z,47.30
2018-09-21T06:50:00.382Z,47.30
2018-09-21T06:52:27.866Z,47.30
2018-09-21T06:54:55.350Z,47.40
2018-09-21T06:57:22.880Z,47.40
2018-09-21T06:59:50.381Z,47.40
2018-09-21T07:02:18.009Z,47.40
2018-09-21T07:04:45.522Z,47.40
2018-09-21T07:07:13.028Z,47.40
2018-09-21T07:09:40.518Z,47.40
2018-09-21T07:12:08.131Z,47.40
2018-09-21T07:14:35.621Z,47.40
2018-09-21T07:17:03.634Z,47.50
2018-09-21T07:19:31.148Z,47.50
2018-09-21T07:21:58.634Z,47.40
2018-09-21T07:24:26.126Z,47.40
2018-09-21T07:26:53.640Z,47.40
2018-09-21T07:29:21.149Z,47.40
2018-09-21T07:31:48.758Z,47.40
2018-09-21T07:34:16.261Z,47.40
2018-09-21T07:36:43.751Z,47.40
2018-09-21T07:39:11.235Z,47.30
2018-09-21T07:41:38.820Z,47.30
2018-09-21T07:44:06.312Z,47.20
2018-09-21T07:46:33.919Z,47.20
2018-09-21T07:49:01.503Z,47.10
2018-09-21T07:51:28.930Z,47.10
2018-09-21T07:53:56.418Z,47.10
2018-09-21T07:56:24.000Z,47.10
2018-09-21T07:58:51.486Z,47.10
2018-09-21T08:01:19.096Z,47.20
2018-09-21T08:03:46.708Z,47.10
2018-09-21T08:06:14.240Z,47.10
2018-09-21T08:08:41.774Z,47.10
2018-09-21T08:11:09.302Z,47.00
2018-09-21T08:13:36.809Z,47.00
2018-09-21T08:16:04.317Z,47.00
2018-09-21T08:18:31.863Z,47.10
2018-09-21T08:20:59.429Z,47.00
2018-09-21T08:23:26.944Z,47.00
2018-09-21T08:25:54.468Z,47.10
2018-09-21T08:28:22.126Z,47.10
2018-09-21T08:30:49.609Z,46.90
2018-09-21T08:33:17.154Z,47.00
2018-09-21T08:35:44.645Z,47.00
2018-09-21T08:38:12.172Z,47.00
2018-09-21T08:40:39.729Z,47.00
2018-09-21T08:43:07.248Z,46.90
2018-09-21T08:45:34.853Z,47.00
2018-09-21T08:48:02.316Z,47.00
2018-09-21T08:50:29.845Z,46.80
2018-09-21T08:52:57.357Z,46.80
2018-09-21T08:55:24.871Z,46.90
2018-09-21T08:57:52.392Z,46.90
2018-09-21T09:00:19.939Z,46.80
2018-09-21T09:02:47.465Z,46.80
2018-09-21T09:05:14.990Z,46.90
2018-09-21T09:07:42.473Z,46.30
2018-09-21T09:10:10.038Z,46.80
2018-09-21T09:12:37.544Z,46.90
2018-09-21T09:15:05.053Z,46.80
2018-09-21T09:17:32.532Z,46.80
2018-09-21T09:20:00.073Z,46.80
2018-09-21T09:22:27.551Z,46.80
2018-09-21T09:24:55.070Z,46.80
2018-09-21T09:27:22.519Z,46.80
2018-09-21T09:29:50.190Z,46.80
2018-09-21T09:32:17.666Z,46.80
2018-09-21T09:34:45.188Z,46.80
2018-09-21T09:37:12.695Z,46.70
2018-09-21T09:39:40.216Z,46.70
2018-09-21T09:42:07.721Z,46.70
2018-09-21T09:44:35.229Z,46.70
2018-09-21T09:47:02.732Z,46.70
2018-09-21T09:49:30.378Z,46.70
2018-09-21T09:51:57.870Z,46.60
2018-09-21T09:54:25.377Z,46.60
2018-09-21T09:56:52.850Z,46.60
2018-09-21T09:59:20.364Z,46.70
2018-09-21T10:01:47.878Z,46.60
2018-09-21T10:04:15.426Z,46.60
2018-09-21T10:06:42.983Z,46.60
2018-09-21T10:09:11.528Z,46.60
2018-09-21T10:11:39.337Z,46.60
2018-09-21T10:14:06.832Z,46.60
2018-09-21T10:16:34.309Z,46.50
2018-09-21T10:19:01.822Z,46.60
2018-09-21T10:21:29.338Z,46.60
2018-09-21T10:23:56.881Z,47.20
2018-09-21T10:26:24.425Z,46.60
2018-09-21T10:28:52.110Z,46.70
2018-09-21T10:31:19.477Z,46.60
2018-09-21T10:33:47.107Z,46.60
2018-09-21T10:36:14.514Z,46.60
2018-09-21T10:38:42.015Z,46.60
2018-09-21T10:41:09.526Z,46.70
2018-09-21T10:43:37.078Z,46.60
2018-09-21T10:46:04.650Z,46.60
2018-09-21T10:48:32.179Z,46.90
2018-09-21T10:51:00.470Z,46.60
2018-09-21T10:53:27.197Z,46.60
2018-09-21T10:55:54.780Z,46.60
2018-09-21T10:58:22.541Z,46.60
2018-09-21T11:00:50.086Z,46.60
2018-09-21T11:03:17.588Z,46.60
2018-09-21T11:05:45.194Z,46.60
2018-09-21T11:08:12.685Z,46.60
2018-09-21T11:10:40.204Z,46.50
2018-09-21T11:13:07.790Z,46.50
2018-09-21T11:15:35.288Z,46.50
2018-09-21T11:18:02.821Z,46.50
2018-09-21T11:20:30.332Z,46.50
2018-09-21T11:22:57.828Z,46.50
2018-09-21T11:25:25.395Z,46.60
2018-09-21T11:27:52.871Z,46.50
2018-09-21T11:30:20.341Z,46.50
2018-09-21T11:32:47.838Z,46.50
2018-09-21T11:35:15.333Z,46.50
2018-09-21T11:37:42.820Z,46.50
2018-09-21T11:40:10.331Z,46.50
2018-09-21T11:42:37.953Z,47.10
2018-09-21T11:45:05.455Z,46.60
2018-09-21T11:47:33.084Z,46.50
2018-09-21T11:50:00.460Z,46.50
2018-09-21T11:52:28.061Z,46.50
2018-09-21T11:54:55.578Z,46.50
2018-09-21T11:57:23.082Z,46.50
2018-09-21T11:59:50.573Z,46.50
2018-09-21T12:02:18.161Z,46.50
2018-09-21T12:04:45.663Z,46.50
2018-09-21T12:07:13.137Z,46.50
2018-09-21T12:09:40.669Z,46.40
2018-09-21T12:12:08.231Z,46.50
2018-09-21T12:14:35.737Z,46.40
2018-09-21T12:17:03.281Z,46.50
2018-09-21T12:19:30.709Z,46.50
2018-09-21T12:21:58.225Z,46.40
2018-09-21T12:24:25.704Z,46.40
2018-09-21T12:26:53.212Z,46.40
2018-09-21T12:29:21.684Z,46.50
2018-09-21T12:31:49.143Z,46.50
2018-09-21T12:34:16.637Z,46.50
2018-09-21T12:36:44.134Z,46.50
2018-09-21T12:39:13.224Z,46.50
2018-09-21T12:41:40.730Z,46.40
2018-09-21T12:44:08.557Z,46.50
2018-09-21T12:46:36.012Z,46.50
2018-09-21T12:49:04.037Z,46.50
2018-09-21T12:51:31.900Z,46.50
2018-09-21T12:53:59.356Z,46.50
2018-09-21T12:56:27.105Z,46.50
2018-09-21T12:58:54.602Z,46.50
2018-09-21T13:01:22.011Z,46.50
2018-09-21T13:03:49.482Z,46.40
2018-09-21T13:06:17.006Z,46.50
2018-09-21T13:08:44.424Z,46.50
2018-09-21T13:11:11.909Z,46.40
2018-09-21T13:13:39.380Z,46.40
2018-09-21T13:16:07.005Z,46.40
2018-09-21T13:18:34.480Z,46.50
2018-09-21T13:21:02.125Z,46.40
2018-09-21T13:23:29.831Z,46.50
2018-09-21T13:25:57.309Z,46.50
2018-09-21T13:28:24.944Z,46.50
2018-09-21T13:30:52.483Z,46.40
2018-09-21T13:33:19.953Z,46.50
2018-09-21T13:35:48.020Z,46.50
2018-09-21T13:38:16.661Z,46.50
2018-09-21T13:40:44.421Z,46.50
2018-09-21T13:43:12.140Z,46.50
2018-09-21T13:45:39.673Z,46.50
2018-09-21T13:48:07.284Z,46.50
2018-09-21T13:50:34.744Z,46.50
2018-09-21T13:53:02.276Z,46.50
2018-09-21T13:55:30.416Z,46.50
2018-09-21T13:57:57.912Z,46.50
2018-09-21T14:00:25.389Z,46.50
2018-09-21T14:02:52.864Z,46.50
2018-09-21T14:05:20.346Z,46.40
2018-09-21T14:07:48.344Z,46.40
2018-09-21T14:10:15.808Z,46.40
2018-09-21T14:12:43.274Z,46.70
2018-09-21T14:15:10.830Z,46.40
2018-09-21T14:17:38.301Z,46.40
2018-09-21T14:20:06.024Z,46.40
2018-09-21T14:22:33.510Z,46.30
2018-09-21T14:25:00.979Z,46.40
2018-09-21T14:27:28.440Z,46.60
2018-09-21T14:29:56.139Z,46.70
2018-09-21T14:32:23.641Z,46.60
2018-09-21T14:34:51.109Z,46.60
2018-09-21T14:37:18.662Z,46.60
2018-09-21T14:39:46.138Z,46.60
2018-09-21T14:42:13.682Z,46.80
2018-09-21T14:44:41.305Z,46.70
2018-09-21T14:47:08.841Z,46.80
2018-09-21T14:49:36.992Z,46.80
2018-09-21T14:52:04.528Z,46.90
2018-09-21T14:54:31.992Z,46.90
2018-09-21T14:56:59.453Z,46.90
2018-09-21T14:59:29.971Z,47.00
2018-09-21T15:01:57.560Z,46.90
2018-09-21T15:04:25.042Z,46.90
2018-09-21T15:06:52.585Z,47.00
2018-09-21T15:09:20.230Z,47.10
2018-09-21T15:11:48.185Z,47.10
2018-09-21T15:14:15.807Z,47.00
2018-09-21T15:16:45.569Z,47.00
2018-09-21T15:19:13.093Z,46.90
2018-09-21T15:21:40.901Z,46.80
2018-09-21T15:24:08.393Z,46.80
2018-09-21T15:26:36.038Z,46.80
2018-09-21T15:29:03.505Z,46.80
2018-09-21T15:31:30.988Z,46.80
2018-09-21T15:33:58.472Z,46.80
2018-09-21T15:36:25.971Z,46.70
2018-09-21T15:38:53.444Z,46.70
2018-09-21T15:41:20.979Z,46.80
2018-09-21T15:43:48.451Z,46.80
2018-09-21T15:46:15.941Z,46.70
2018-09-21T15:48:43.758Z,46.70
2018-09-21T15:51:11.228Z,46.70
2018-09-21T15:53:38.734Z,46.80
2018-09-21T15:56:06.359Z,46.80
2018-09-21T15:58:33.870Z,46.80
2018-09-21T16:01:01.406Z,46.80
2018-09-21T16:03:28.889Z,46.80
2018-09-21T16:05:56.527Z,47.00
2018-09-21T16:08:23.969Z,47.00
2018-09-21T16:10:51.625Z,47.00
2018-09-21T16:13:19.239Z,47.10
2018-09-21T16:15:46.728Z,47.10
2018-09-21T16:18:14.209Z,47.20
2018-09-21T16:20:41.707Z,47.20
2018-09-21T16:23:09.800Z,47.20
2018-09-21T16:25:39.868Z,47.20
2018-09-21T16:28:07.381Z,47.20
2018-09-21T16:30:34.985Z,47.30
2018-09-21T16:33:02.652Z,47.30
2018-09-21T16:35:30.130Z,47.30
2018-09-21T16:37:57.983Z,47.30
2018-09-21T16:40:25.942Z,47.30
2018-09-21T16:42:53.851Z,47.20
2018-09-21T16:45:21.461Z,47.20
2018-09-21T16:47:48.972Z,47.20
2018-09-21T16:50:16.446Z,47.20
2018-09-21T16:52:43.941Z,47.20
2018-09-21T16:55:11.448Z,47.20
2018-09-21T16:57:39.068Z,47.20
2018-09-21T17:00:06.967Z,47.20
2018-09-21T17:02:34.447Z,47.30
2018-09-21T17:05:01.949Z,47.30
2018-09-21T17:07:30.090Z,47.40
2018-09-21T17:09:59.180Z,47.30
2018-09-21T17:12:26.988Z,47.40
2018-09-21T17:14:54.998Z,47.40
2018-09-21T17:17:23.629Z,47.40
2018-09-21T17:19:51.132Z,47.40
2018-09-21T17:22:21.109Z,47.40
2018-09-21T17:24:48.675Z,47.40
2018-09-21T17:27:16.499Z,48.00
2018-09-21T17:29:44.018Z,47.40
2018-09-21T17:32:12.450Z,47.40
2018-09-21T17:34:40.110Z,47.30
2018-09-21T17:37:07.676Z,47.90
2018-09-21T17:39:35.151Z,47.90
2018-09-21T17:42:02.633Z,47.30
2018-09-21T17:44:30.221Z,47.30
2018-09-21T17:46:57.735Z,47.30
2018-09-21T17:49:25.203Z,47.30
2018-09-21T17:51:52.764Z,47.30
2018-09-21T17:54:20.321Z,47.30
2018-09-21T17:56:47.801Z,47.30
2018-09-21T17:59:15.778Z,47.40
2018-09-21T18:01:43.366Z,47.30
2018-09-21T18:04:10.853Z,47.30
2018-09-21T18:06:38.370Z,47.30
2018-09-21T18:09:07.087Z,47.30
2018-09-21T18:11:34.557Z,47.30
2018-09-21T18:14:02.061Z,47.30
2018-09-21T18:16:29.572Z,47.90
2018-09-21T18:18:57.044Z,47.30
2018-09-21T18:21:24.795Z,47.30
2018-09-21T18:23:52.279Z,47.20
2018-09-21T18:26:19.849Z,47.20
2018-09-21T18:28:47.331Z,47.20
2018-09-21T18:31:14.886Z,47.20
2018-09-21T18:33:42.353Z,47.20
2018-09-21T18:36:09.850Z,47.20
2018-09-21T18:38:37.384Z,47.20
2018-09-21T18:41:04.956Z,47.20
2018-09-21T18:43:32.467Z,47.20
2018-09-21T18:45:59.957Z,47.20
2018-09-21T18:48:27.436Z,47.30
2018-09-21T18:50:54.922Z,47.20
2018-09-21T18:53:22.513Z,47.20
2018-09-21T18:55:49.988Z,47.20
2018-09-21T18:58:17.541Z,47.20
2018-09-21T19:00:45.047Z,47.20
2018-09-21T19:03:12.592Z,47.20
2018-09-21T19:05:40.104Z,47.20
2018-09-21T19:08:07.763Z,47.20
2018-09-21T19:10:35.303Z,47.20
2018-09-21T19:13:02.796Z,47.10
2018-09-21T19:15:30.259Z,47.20
2018-09-21T19:17:57.788Z,47.20
2018-09-21T19:20:25.349Z,47.20
2018-09-21T19:22:52.833Z,47.10
2018-09-21T19:25:20.422Z,47.20
2018-09-21T19:27:47.897Z,47.20
2018-09-21T19:30:15.390Z,47.20
2018-09-21T19:32:42.857Z,47.10
2018-09-21T19:35:10.308Z,47.10
2018-09-21T19:37:37.912Z,47.10
2018-09-21T19:40:05.466Z,47.00
2018-09-21T19:42:33.039Z,47.10
2018-09-21T19:45:00.594Z,47.10
2018-09-21T19:47:27.978Z,47.10
2018-09-21T19:49:55.543Z,47.10
2018-09-21T19:52:23.102Z,47.10
2018-09-21T19:54:50.571Z,46.90
2018-09-21T19:57:18.090Z,47.10
2018-09-21T19:59:45.650Z,47.10
2018-09-21T20:02:13.304Z,47.00
2018-09-21T20:04:40.796Z,47.00
2018-09-21T20:07:09.554Z,47.00
2018-09-21T20:09:37.016Z,47.10
2018-09-21T20:12:04.564Z,47.00
2018-09-21T20:14:32.137Z,46.90
2018-09-21T20:16:59.727Z,47.00
2018-09-21T20:19:27.245Z,46.90
2018-09-21T20:21:54.874Z,46.90
2018-09-21T20:24:22.433Z,46.90
2018-09-21T20:26:50.002Z,46.90
2018-09-21T20:29:17.472Z,46.90
2018-09-21T20:31:50.646Z,46.80
2018-09-21T20:34:18.096Z,46.80
2018-09-21T20:36:45.560Z,46.80
2018-09-21T20:39:13.099Z,46.80
2018-09-21T20:41:40.595Z,46.80
2018-09-21T20:44:08.107Z,46.80
2018-09-21T20:46:35.717Z,46.80
2018-09-21T20:49:03.283Z,46.80
2018-09-21T20:51:30.769Z,46.80
2018-09-21T20:53:58.361Z,46.80
2018-09-21T20:56:25.994Z,46.80
2018-09-21T20:58:53.497Z,46.80
2018-09-21T21:01:20.989Z,46.80
2018-09-21T21:03:48.457Z,46.80
2018-09-21T21:06:16.160Z,46.80
2018-09-21T21:08:43.639Z,47.40
2018-09-21T21:11:11.092Z,46.80
2018-09-21T21:13:38.604Z,46.80
2018-09-21T21:16:06.058Z,46.80
2018-09-21T21:18:33.521Z,46.80
2018-09-21T21:21:01.010Z,46.80
2018-09-21T21:23:28.476Z,46.80
2018-09-21T21:25:55.940Z,47.40
2018-09-21T21:28:23.422Z,46.70
2018-09-21T21:30:50.876Z,46.70
2018-09-21T21:33:18.585Z,46.70
2018-09-21T21:35:46.444Z,46.60
2018-09-21T21:38:14.333Z,46.60
2018-09-21T21:40:41.824Z,46.60
2018-09-21T21:43:09.795Z,46.60
2018-09-21T21:45:37.245Z,46.50
2018-09-21T21:48:04.719Z,46.50
2018-09-21T21:50:32.213Z,46.50
2018-09-21T21:52:59.675Z,47.10
2018-09-21T21:55:27.252Z,46.50
2018-09-21T21:57:54.723Z,46.40
2018-09-21T22:00:22.281Z,46.40
2018-09-21T22:02:49.741Z,46.40
2018-09-21T22:05:17.277Z,46.40
2018-09-21T22:07:44.741Z,46.40
2018-09-21T22:10:12.216Z,46.40
2018-09-21T22:13:48.265Z,46.40
2018-09-21T22:16:15.737Z,45.80
2018-09-21T22:18:43.207Z,46.40
2018-09-21T22:21:10.669Z,46.40
2018-09-21T22:23:38.145Z,46.40
2018-09-21T22:26:05.633Z,46.40
2018-09-21T22:28:33.092Z,46.40
2018-09-21T22:31:00.567Z,46.30
2018-09-21T22:33:28.037Z,46.30
2018-09-21T22:35:55.538Z,46.30
2018-09-21T22:38:23.001Z,46.30
2018-09-21T22:40:50.469Z,46.30
2018-09-21T22:43:17.930Z,46.20
2018-09-21T22:45:45.384Z,46.20
2018-09-21T22:48:12.857Z,46.20
2018-09-21T22:50:40.331Z,46.20
2018-09-21T22:53:07.832Z,46.20
2018-09-21T22:55:35.302Z,46.20
2018-09-21T22:58:02.841Z,46.40
2018-09-21T23:00:30.302Z,46.10
2018-09-21T23:02:57.784Z,46.10
2018-09-21T23:05:25.328Z,46.10
2018-09-21T23:07:52.815Z,46.10
2018-09-21T23:10:20.265Z,46.10
2018-09-21T23:12:47.741Z,46.00
2018-09-21T23:15:15.221Z,46.10
2018-09-21T23:17:42.768Z,46.00
2018-09-21T23:20:10.249Z,46.00
2018-09-21T23:22:37.701Z,46.00
2018-09-21T23:25:05.183Z,46.00
2018-09-21T23:27:32.668Z,46.00
2018-09-21T23:30:00.133Z,46.00
2018-09-21T23:32:27.596Z,45.90
2018-09-21T23:34:55.071Z,46.00
2018-09-21T23:37:22.524Z,46.00
2018-09-21T23:39:49.980Z,45.90
2018-09-21T23:42:17.442Z,45.90
2018-09-21T23:44:44.908Z,45.90
2018-09-21T23:47:12.386Z,45.80
2018-09-21T23:49:39.869Z,45.80
2018-09-21T23:52:07.329Z,46.50
2018-09-21T23:54:34.797Z,45.90
2018-09-21T23:57:02.260Z,45.90
2018-09-21T23:59:29.721Z,45.80
